Time;durP1;ratioP1;P1;durP2;ratioP2;P2;SDS_P1;SDS_P2;PMS_P1;PMS_P2;Temp;Humidity;BMP_temperature;BMP_pressure;BME280_temperature;BME280_humidity;BME280_pressure;Samples;Min_cycle;Max_cycle;Signal;HPM_P1;HPM_P2
2023/02/24 00:00:30;;;;;;;38.78;7.13;;;4.90;99.90;;;;;;5073264;28;20021;-64
2023/02/24 00:02:51;;;;;;;51.00;7.70;;;4.80;99.90;;;;;;5073350;28;20033;-64
2023/02/24 00:05:17;;;;;;;46.67;8.15;;;4.90;99.90;;;;;;5073620;28;20023;-64
2023/02/24 00:07:43;;;;;;;35.05;7.45;;;4.90;99.90;;;;;;5073795;28;20441;-64
2023/02/24 00:10:09;;;;;;;37.00;7.88;;;4.90;99.90;;;;;;5073603;28;20103;-64
2023/02/24 00:12:35;;;;;;;38.63;8.30;;;4.90;99.90;;;;;;5072180;28;20543;-64
2023/02/24 00:15:00;;;;;;;50.83;9.35;;;4.90;99.90;;;;;;5073348;28;20020;-64
2023/02/24 00:17:29;;;;;;;49.35;9.88;;;4.80;99.90;;;;;;5073517;28;20074;-64
2023/02/24 00:19:55;;;;;;;51.45;10.40;;;4.90;99.90;;;;;;5073204;28;20082;-64
2023/02/24 00:22:20;;;;;;;43.47;9.45;;;4.80;99.90;;;;;;5073293;28;20032;-64
2023/02/24 00:24:46;;;;;;;54.45;9.15;;;4.80;99.90;;;;;;5072295;28;20021;-64
2023/02/24 00:27:11;;;;;;;61.88;10.73;;;4.70;99.90;;;;;;5073216;28;20021;-64
2023/02/24 00:29:38;;;;;;;48.95;9.73;;;4.80;99.90;;;;;;5073135;28;20024;-64
2023/02/24 00:32:06;;;;;;;42.75;9.10;;;4.70;99.90;;;;;;5072223;28;20024;-64
2023/02/24 00:34:35;;;;;;;34.15;9.20;;;4.70;99.90;;;;;;5073315;28;20031;-64
2023/02/24 00:37:01;;;;;;;46.20;8.77;;;4.70;99.90;;;;;;5071954;28;20036;-64
2023/02/24 00:39:29;;;;;;;43.22;8.85;;;4.70;99.90;;;;;;5072936;28;20422;-64
2023/02/24 00:42:03;;;;;;;50.97;9.02;;;4.70;99.90;;;;;;5073128;28;20494;-64
2023/02/24 00:44:31;;;;;;;46.45;10.50;;;4.70;99.90;;;;;;5073038;28;20100;-64
2023/02/24 00:46:57;;;;;;;56.65;8.98;;;4.60;99.90;;;;;;5071832;28;20025;-64
2023/02/24 00:49:23;;;;;;;50.72;9.45;;;4.60;99.90;;;;;;5073007;28;20028;-64
2023/02/24 00:51:53;;;;;;;44.33;9.32;;;4.60;99.90;;;;;;5073039;28;20013;-64
2023/02/24 00:54:18;;;;;;;56.25;10.32;;;4.60;99.90;;;;;;5072886;28;20024;-64
2023/02/24 00:56:46;;;;;;;45.50;8.45;;;4.60;99.90;;;;;;5073152;28;20038;-64
2023/02/24 00:59:14;;;;;;;51.85;9.18;;;4.60;99.90;;;;;;5073070;28;20394;-64
2023/02/24 01:01:40;;;;;;;58.72;9.65;;;4.60;99.90;;;;;;5074023;28;20397;-64
2023/02/24 01:04:10;;;;;;;47.17;9.55;;;4.60;99.90;;;;;;5076847;28;20107;-64
2023/02/24 01:06:38;;;;;;;41.42;8.63;;;4.60;99.90;;;;;;5075914;28;20074;-64
2023/02/24 01:09:07;;;;;;;40.05;9.02;;;4.60;99.90;;;;;;5075831;28;20497;-64
2023/02/24 01:14:22;;;;;;;47.72;9.43;;;4.50;99.90;;;;;;5075559;28;20107;-64
2023/02/24 01:16:49;;;;;;;46.40;8.40;;;4.50;99.90;;;;;;5075536;28;20089;-64
2023/02/24 01:19:16;;;;;;;54.90;9.30;;;4.50;99.90;;;;;;5076806;28;20071;-64
2023/02/24 01:21:41;;;;;;;46.80;8.18;;;4.50;99.90;;;;;;5075573;28;20035;-64
2023/02/24 01:24:09;;;;;;;46.92;8.45;;;4.50;99.90;;;;;;5076417;28;20029;-64
2023/02/24 01:26:35;;;;;;;37.75;9.63;;;4.50;99.90;;;;;;5076427;28;20024;-64
2023/02/24 01:29:02;;;;;;;54.92;9.07;;;4.50;99.90;;;;;;5076374;28;20112;-64
2023/02/24 01:31:28;;;;;;;47.03;8.93;;;4.60;99.90;;;;;;5076405;28;20029;-64
2023/02/24 01:33:54;;;;;;;42.35;8.40;;;4.60;99.90;;;;;;5075122;28;20039;-64
2023/02/24 01:36:22;;;;;;;49.90;9.43;;;4.60;99.90;;;;;;5076314;28;20063;-64
2023/02/24 01:38:48;;;;;;;37.55;8.38;;;4.50;99.90;;;;;;5076269;28;20050;-64
2023/02/24 01:41:17;;;;;;;42.38;7.75;;;4.60;99.90;;;;;;5075901;28;20048;-64
2023/02/24 01:44:08;;;;;;;50.35;9.05;;;4.50;99.90;;;;;;5075125;28;20047;-64
2023/02/24 01:46:37;;;;;;;41.83;8.90;;;4.50;99.90;;;;;;5074893;28;20445;-64
2023/02/24 01:49:22;;;;;;;42.88;8.40;;;4.50;99.90;;;;;;5074875;28;20025;-64
2023/02/24 01:51:52;;;;;;;42.30;9.00;;;4.50;99.90;;;;;;5076048;28;20025;-64
2023/02/24 01:54:21;;;;;;;52.45;9.18;;;4.50;99.90;;;;;;5075965;28;20074;-64
2023/02/24 01:56:49;;;;;;;50.17;9.38;;;4.50;99.90;;;;;;5076145;28;20032;-64
2023/02/24 01:59:15;;;;;;;46.75;9.52;;;4.50;99.90;;;;;;5076072;28;20024;-64
2023/02/24 02:01:41;;;;;;;44.72;9.57;;;4.50;99.90;;;;;;5075734;28;20027;-64
2023/02/24 02:04:30;;;;;;;51.53;9.57;;;4.50;99.90;;;;;;5075736;28;20413;-64
2023/02/24 02:06:57;;;;;;;47.83;9.68;;;4.50;99.90;;;;;;5075796;28;20463;-64
2023/02/24 02:09:22;;;;;;;43.28;8.20;;;4.50;99.90;;;;;;5075700;28;20082;-64
2023/02/24 02:11:48;;;;;;;43.78;9.30;;;4.50;99.90;;;;;;5075539;28;20021;-64
2023/02/24 02:14:16;;;;;;;48.25;9.32;;;4.50;99.90;;;;;;5075601;28;20121;-64
2023/02/24 02:16:50;;;;;;;48.95;9.57;;;4.50;99.90;;;;;;5074530;28;20086;-64
2023/02/24 02:19:37;;;;;;;42.97;10.63;;;4.50;99.90;;;;;;5075463;28;20043;-65
2023/02/24 02:22:08;;;;;;;50.65;9.02;;;4.40;99.90;;;;;;5075436;28;20036;-64
2023/02/24 02:24:47;;;;;;;56.08;9.57;;;4.50;99.90;;;;;;5075590;28;20017;-64
2023/02/24 02:27:23;;;;;;;45.00;8.65;;;4.40;99.90;;;;;;5075397;28;20028;-64
2023/02/24 02:33:05;;;;;;;45.08;8.38;;;4.40;99.90;;;;;;5111233;27;20368;-64
2023/02/24 02:35:45;;;;;;;46.97;8.98;;;4.40;99.90;;;;;;5110872;28;20413;-64
2023/02/24 02:38:24;;;;;;;45.10;9.73;;;4.40;99.90;;;;;;5111136;28;20053;-64
2023/02/24 02:41:08;;;;;;;36.67;7.90;;;4.40;99.90;;;;;;5110933;28;20055;-64
2023/02/24 02:43:41;;;;;;;42.58;9.13;;;4.40;99.90;;;;;;5110871;28;20393;-64
2023/02/24 02:46:33;;;;;;;34.30;9.10;;;4.40;99.90;;;;;;5109568;28;20036;-64
2023/02/24 02:49:05;;;;;;;38.60;8.35;;;4.40;99.90;;;;;;5111006;28;20533;-64
2023/02/24 02:51:39;;;;;;;46.65;8.90;;;4.40;99.90;;;;;;5110894;28;20023;-64
2023/02/24 02:54:14;;;;;;;39.75;9.95;;;4.30;99.90;;;;;;5110538;28;20024;-64
2023/02/24 02:56:45;;;;;;;45.08;9.68;;;4.30;99.90;;;;;;5110563;28;20364;-64
2023/02/24 02:59:14;;;;;;;30.88;7.97;;;4.30;99.90;;;;;;5109608;28;20107;-64
2023/02/24 03:01:42;;;;;;;44.50;8.70;;;4.30;99.90;;;;;;5110677;28;20027;-64
2023/02/24 03:04:10;;;;;;;41.40;8.75;;;4.30;99.90;;;;;;5109318;28;20056;-64
2023/02/24 03:06:43;;;;;;;45.13;8.93;;;4.30;99.90;;;;;;5109483;28;20413;-64
2023/02/24 03:09:17;;;;;;;37.88;8.07;;;4.20;99.90;;;;;;5110199;28;20055;-64
2023/02/24 03:11:47;;;;;;;32.03;8.25;;;4.30;99.90;;;;;;5109373;28;20524;-64
2023/02/24 03:14:18;;;;;;;38.13;7.40;;;4.20;99.90;;;;;;5109341;28;20111;-64
2023/02/24 03:16:48;;;;;;;34.95;8.82;;;4.30;99.90;;;;;;5109134;28;20020;-64
2023/02/24 03:19:19;;;;;;;40.85;8.13;;;4.20;99.90;;;;;;5110311;28;20024;-64
2023/02/24 03:21:50;;;;;;;40.55;7.70;;;4.30;99.90;;;;;;5109127;28;20035;-64
2023/02/24 03:24:16;;;;;;;31.40;8.02;;;4.20;99.90;;;;;;5110220;28;20065;-64
2023/02/24 03:26:50;;;;;;;31.67;8.07;;;4.20;99.90;;;;;;5110437;28;20059;-64
2023/02/24 03:29:22;;;;;;;30.35;7.25;;;4.10;99.90;;;;;;5110295;28;20028;-64
2023/02/24 03:31:58;;;;;;;43.58;8.13;;;4.10;99.90;;;;;;5109754;28;20102;-65
2023/02/24 03:34:36;;;;;;;26.25;6.80;;;4.10;99.90;;;;;;5108882;28;20056;-64
2023/02/24 03:37:02;;;;;;;29.58;6.57;;;4.10;99.90;;;;;;5109851;28;20037;-64
2023/02/24 03:39:27;;;;;;;35.90;9.30;;;4.10;99.90;;;;;;5109944;28;20024;-64
2023/02/24 03:42:00;;;;;;;30.08;6.20;;;4.10;99.90;;;;;;5108058;28;20066;-64
2023/02/24 03:44:27;;;;;;;35.20;6.50;;;4.00;99.90;;;;;;5096178;28;20035;-64
2023/02/24 03:46:54;;;;;;;27.75;5.20;;;4.00;99.90;;;;;;5096345;28;20111;-64
2023/02/24 03:49:21;;;;;;;29.58;6.10;;;4.00;99.90;;;;;;5095127;28;20021;-64
2023/02/24 03:55:08;;;;;;;33.63;6.53;;;3.90;99.90;;;;;;5111092;27;20380;-64
2023/02/24 03:58:07;;;;;;;22.27;5.53;;;3.90;99.90;;;;;;5110946;28;20028;-64
2023/02/24 04:04:06;;;;;;;25.38;5.78;;;3.90;99.90;;;;;;5111103;27;20381;-63
2023/02/24 04:06:56;;;;;;;25.80;5.75;;;3.80;99.90;;;;;;5110900;28;20089;-66
2023/02/24 04:09:44;;;;;;;26.95;5.28;;;3.80;99.90;;;;;;5109739;28;20031;-66
2023/02/24 04:12:25;;;;;;;33.38;6.40;;;3.80;99.90;;;;;;5111111;28;20059;-65
2023/02/24 04:15:14;;;;;;;30.88;5.60;;;3.80;99.90;;;;;;5110896;28;20039;-63
2023/02/24 04:18:03;;;;;;;32.67;5.03;;;3.90;99.90;;;;;;5109639;28;20020;-63
2023/02/24 04:20:31;;;;;;;23.80;6.45;;;3.80;99.90;;;;;;5109718;28;20453;-63
2023/02/24 04:23:10;;;;;;;26.10;4.50;;;3.80;99.90;;;;;;5110670;28;20027;-63
2023/02/24 04:25:37;;;;;;;22.73;5.72;;;3.80;99.90;;;;;;5110714;28;20047;-64
2023/02/24 04:28:06;;;;;;;25.08;5.53;;;3.70;99.90;;;;;;5110574;28;20062;-64
2023/02/24 04:30:38;;;;;;;21.40;5.43;;;3.70;99.90;;;;;;5110596;28;20020;-64
2023/02/24 04:33:03;;;;;;;21.35;5.47;;;3.70;99.90;;;;;;5110547;28;20485;-64
2023/02/24 04:35:29;;;;;;;21.80;5.40;;;3.70;99.90;;;;;;5110681;28;20035;-63
2023/02/24 04:37:55;;;;;;;25.55;5.93;;;3.60;99.90;;;;;;5110413;28;20135;-64
2023/02/24 04:40:22;;;;;;;22.35;5.03;;;3.60;99.90;;;;;;5110362;28;20091;-64
2023/02/24 04:42:50;;;;;;;24.33;5.65;;;3.60;99.90;;;;;;5109225;28;20096;-63
2023/02/24 04:45:20;;;;;;;25.55;5.78;;;3.60;99.90;;;;;;5109314;28;20031;-63
2023/02/24 04:48:02;;;;;;;29.55;5.75;;;3.60;99.90;;;;;;5109210;28;20020;-63
2023/02/24 04:50:31;;;;;;;23.50;5.10;;;3.50;99.90;;;;;;5109449;28;20031;-63
2023/02/24 04:52:59;;;;;;;25.60;5.50;;;3.50;99.90;;;;;;5109223;28;20020;-63
2023/02/24 04:55:28;;;;;;;24.73;5.13;;;3.50;99.90;;;;;;5109016;28;20060;-63
2023/02/24 04:57:55;;;;;;;20.98;5.30;;;3.50;99.90;;;;;;5108935;28;20051;-64
2023/02/24 05:00:22;;;;;;;33.92;5.72;;;3.50;99.90;;;;;;5109989;28;20023;-63
2023/02/24 05:02:49;;;;;;;23.75;4.97;;;3.40;99.90;;;;;;5109782;28;20493;-64
2023/02/24 05:05:17;;;;;;;36.17;5.38;;;3.40;99.90;;;;;;5110248;28;20024;-64
2023/02/24 05:07:46;;;;;;;23.17;4.80;;;3.30;99.90;;;;;;5108931;28;20099;-63
2023/02/24 05:10:13;;;;;;;19.98;5.10;;;3.20;99.90;;;;;;5108664;28;20393;-64
2023/02/24 05:12:38;;;;;;;26.05;5.72;;;3.10;99.90;;;;;;5108596;28;20131;-64
2023/02/24 05:15:06;;;;;;;22.55;4.20;;;3.10;99.90;;;;;;5096004;28;20063;-63
2023/02/24 05:17:32;;;;;;;25.38;5.10;;;3.00;99.90;;;;;;5096345;28;20035;-64
2023/02/24 05:22:43;;;;;;;24.35;5.10;;;2.90;99.90;;;;;;5095794;28;20020;-63
2023/02/24 05:25:09;;;;;;;22.45;5.10;;;3.00;99.90;;;;;;5096116;28;20111;-63
2023/02/24 05:27:37;;;;;;;22.48;5.15;;;2.90;99.90;;;;;;5095916;28;20447;-63
2023/02/24 05:30:04;;;;;;;24.48;5.68;;;3.00;99.90;;;;;;5096112;28;20025;-64
2023/02/24 05:32:33;;;;;;;27.77;5.63;;;2.90;99.90;;;;;;5095755;28;20031;-63
2023/02/24 05:34:58;;;;;;;27.10;5.85;;;2.90;99.90;;;;;;5096002;28;20024;-64
2023/02/24 05:37:24;;;;;;;21.38;4.90;;;2.80;99.90;;;;;;5095604;28;20046;-64
2023/02/24 05:39:54;;;;;;;19.88;5.10;;;2.70;99.90;;;;;;5095778;28;20473;-63
2023/02/24 05:42:20;;;;;;;21.83;4.63;;;2.80;99.90;;;;;;5095631;28;20032;-64
2023/02/24 05:44:45;;;;;;;20.67;4.38;;;2.70;99.90;;;;;;5095604;28;20458;-64
2023/02/24 05:47:11;;;;;;;18.10;3.80;;;2.70;99.90;;;;;;5095484;28;20171;-64
2023/02/24 05:49:37;;;;;;;21.80;4.50;;;2.60;99.90;;;;;;5095690;28;20385;-64
2023/02/24 05:52:07;;;;;;;19.38;4.03;;;2.60;99.90;;;;;;5095427;28;20024;-64
2023/02/24 05:54:37;;;;;;;30.15;9.32;;;2.50;99.90;;;;;;5094472;28;20028;-64
2023/02/24 05:57:12;;;;;;;28.60;6.50;;;2.50;99.90;;;;;;5094082;28;20028;-64
2023/02/24 05:59:40;;;;;;;25.55;4.63;;;2.50;99.90;;;;;;5095294;28;20062;-63
2023/02/24 06:02:10;;;;;;;19.35;4.43;;;2.50;99.90;;;;;;5093743;28;20044;-63
2023/02/24 06:04:38;;;;;;;29.45;9.35;;;2.50;99.90;;;;;;5095237;28;20490;-63
2023/02/24 06:07:06;;;;;;;33.97;7.95;;;2.40;99.90;;;;;;5095197;28;20032;-64
2023/02/24 06:09:33;;;;;;;56.20;22.30;;;2.40;99.90;;;;;;5095052;28;20111;-64
2023/02/24 06:11:58;;;;;;;35.80;14.20;;;2.40;99.90;;;;;;5095132;28;20529;-64
2023/02/24 06:14:24;;;;;;;33.28;13.70;;;2.40;99.90;;;;;;5095245;28;20052;-64
2023/02/24 06:16:50;;;;;;;25.92;7.10;;;2.40;99.90;;;;;;5095050;28;20028;-64
2023/02/24 06:19:15;;;;;;;21.90;7.25;;;2.40;99.90;;;;;;5094939;28;20039;-64
2023/02/24 06:21:41;;;;;;;27.90;8.00;;;2.40;99.90;;;;;;5094774;28;20028;-64
2023/02/24 06:24:13;;;;;;;21.63;6.15;;;2.40;99.90;;;;;;5094761;28;20055;-64
2023/02/24 06:26:42;;;;;;;19.90;5.60;;;2.50;99.90;;;;;;5094118;28;20032;-64
2023/02/24 06:29:12;;;;;;;24.67;5.15;;;2.50;99.90;;;;;;5093861;28;20016;-64
2023/02/24 06:31:37;;;;;;;28.38;6.20;;;2.50;99.90;;;;;;5094613;28;20028;-64
2023/02/24 06:34:03;;;;;;;25.50;5.82;;;2.50;99.90;;;;;;5094683;28;20032;-64
2023/02/24 06:36:28;;;;;;;18.10;5.32;;;2.50;99.90;;;;;;5094552;28;20478;-64
2023/02/24 06:38:55;;;;;;;21.95;5.65;;;2.50;99.90;;;;;;5094658;28;20111;-64
2023/02/24 06:41:21;;;;;;;21.40;4.90;;;2.50;99.90;;;;;;5094497;28;20391;-64
2023/02/24 06:43:47;;;;;;;23.75;5.43;;;2.50;99.90;;;;;;5094749;28;20394;-64
2023/02/24 06:46:15;;;;;;;21.52;5.32;;;2.50;99.90;;;;;;5094738;28;20020;-64
2023/02/24 06:48:41;;;;;;;23.67;5.60;;;2.60;99.90;;;;;;5093366;28;20024;-64
2023/02/24 06:51:12;;;;;;;23.52;4.90;;;2.60;99.90;;;;;;5094594;28;20024;-64
2023/02/24 06:53:41;;;;;;;26.65;5.85;;;2.60;99.90;;;;;;5093394;28;20578;-64
2023/02/24 06:56:13;;;;;;;20.20;6.13;;;2.70;99.90;;;;;;5094211;28;20035;-64
2023/02/24 06:58:42;;;;;;;18.40;6.47;;;2.70;99.90;;;;;;5093007;28;20486;-64
2023/02/24 07:01:12;;;;;;;24.02;5.20;;;2.70;99.90;;;;;;5093568;28;20038;-64
2023/02/24 07:03:38;;;;;;;17.52;5.07;;;2.70;99.90;;;;;;5093048;28;20028;-64
2023/02/24 07:06:22;;;;;;;24.13;5.22;;;2.80;99.90;;;;;;5094259;28;20417;-64
2023/02/24 07:08:50;;;;;;;17.27;4.80;;;2.80;99.90;;;;;;5093207;28;20031;-63
2023/02/24 07:11:17;;;;;;;20.02;4.93;;;2.90;99.90;;;;;;5094205;28;20481;-64
2023/02/24 07:13:46;;;;;;;22.35;5.07;;;2.90;99.90;;;;;;5093845;28;20024;-63
2023/02/24 07:16:14;;;;;;;18.15;5.70;;;2.90;99.90;;;;;;5094052;28;20027;-63
2023/02/24 07:18:41;;;;;;;21.05;4.55;;;3.00;99.90;;;;;;5094056;28;20028;-63
2023/02/24 07:21:10;;;;;;;23.05;4.88;;;3.00;99.90;;;;;;5092701;28;20392;-63
2023/02/24 07:23:38;;;;;;;21.60;4.78;;;3.10;99.90;;;;;;5093508;28;20020;-63
2023/02/24 07:26:10;;;;;;;18.00;4.15;;;3.10;99.90;;;;;;5093541;28;20371;-63
2023/02/24 07:28:39;;;;;;;22.60;4.90;;;3.20;99.90;;;;;;5093953;28;20027;-63
2023/02/24 07:31:07;;;;;;;23.38;4.55;;;3.20;99.90;;;;;;5093613;28;20031;-63
2023/02/24 07:33:35;;;;;;;27.73;6.07;;;3.30;99.90;;;;;;5093662;28;20024;-63
2023/02/24 07:36:07;;;;;;;34.03;8.15;;;3.30;99.90;;;;;;5092302;28;20448;-63
2023/02/24 07:38:34;;;;;;;50.15;22.30;;;3.30;99.90;;;;;;5093742;28;20020;-63
2023/02/24 07:41:00;;;;;;;104.15;43.72;;;3.30;99.90;;;;;;5093460;28;20050;-63
2023/02/24 07:43:26;;;;;;;92.72;42.92;;;3.40;99.90;;;;;;5093370;28;20063;-63
2023/02/24 07:45:51;;;;;;;81.18;39.47;;;3.40;99.90;;;;;;5093341;28;20020;-64
2023/02/24 07:48:17;;;;;;;33.70;13.82;;;3.50;99.90;;;;;;5093249;28;20023;-63
2023/02/24 07:50:42;;;;;;;24.40;8.35;;;3.50;99.90;;;;;;5093206;28;20118;-63
2023/02/24 07:53:08;;;;;;;26.60;8.05;;;3.50;99.90;;;;;;5093130;28;20074;-63
2023/02/24 07:55:35;;;;;;;23.48;8.60;;;3.60;99.90;;;;;;5093046;28;20035;-63
2023/02/24 07:58:01;;;;;;;26.58;5.75;;;3.60;99.90;;;;;;5093430;28;20028;-63
2023/02/24 08:00:28;;;;;;;22.73;6.70;;;3.60;99.90;;;;;;5093465;28;20084;-63
2023/02/24 08:02:55;;;;;;;25.27;7.32;;;3.60;99.90;;;;;;5093028;28;20055;-63
2023/02/24 08:05:23;;;;;;;29.63;6.70;;;3.60;99.90;;;;;;5091919;28;20497;-63
2023/02/24 08:07:49;;;;;;;28.73;9.27;;;3.70;99.90;;;;;;5091620;28;20031;-63
2023/02/24 08:10:24;;;;;;;29.80;10.52;;;3.70;99.90;;;;;;5073477;28;20037;-63
2023/02/24 08:12:54;;;;;;;31.55;7.68;;;3.70;99.90;;;;;;5086848;28;20039;-63
2023/02/24 08:15:22;;;;;;;26.35;7.35;;;3.70;99.90;;;;;;5092338;28;20042;-63
2023/02/24 08:17:48;;;;;;;26.27;8.70;;;3.80;99.90;;;;;;5091775;28;20093;-63
2023/02/24 08:22:53;;;;;;;27.38;7.32;;;3.80;99.90;;;;;;5090619;28;20297;-63
2023/02/24 08:25:23;;;;;;;17.80;5.93;;;3.80;99.90;;;;;;5089675;28;20453;-63
2023/02/24 08:27:54;;;;;;;19.80;6.47;;;3.80;99.90;;;;;;5090174;28;20031;-63
2023/02/24 08:30:22;;;;;;;18.17;5.93;;;3.80;99.90;;;;;;5082105;28;20051;-63
2023/02/24 08:32:55;;;;;;;16.50;5.70;;;3.90;99.90;;;;;;5074763;28;20035;-63
2023/02/24 08:35:34;;;;;;;;;;;3.90;99.90;;;;;;5082152;28;20036;-63
2023/02/24 08:38:06;;;;;;;20.83;6.10;;;4.00;99.90;;;;;;5078108;28;19908;-63
2023/02/24 08:43:45;;;;;;;20.90;6.55;;;4.00;99.90;;;;;;5076616;28;20032;-63
2023/02/24 08:46:24;;;;;;;28.42;4.90;;;4.00;99.90;;;;;;5089060;28;20028;-63
2023/02/24 08:48:54;;;;;;;17.30;5.15;;;4.10;99.90;;;;;;5088341;28;20020;-63
2023/02/24 08:51:34;;;;;;;23.02;5.82;;;4.10;99.90;;;;;;5090269;28;20020;-63
2023/02/24 08:54:02;;;;;;;21.15;6.20;;;4.10;99.90;;;;;;5087960;28;20397;-64
2023/02/24 08:56:33;;;;;;;16.85;4.78;;;4.20;99.90;;;;;;5089161;28;20032;-63
2023/02/24 08:59:04;;;;;;;22.40;6.38;;;4.20;99.90;;;;;;5079116;28;20432;-63
2023/02/24 09:01:37;;;;;;;21.05;5.30;;;4.20;99.90;;;;;;5090646;28;20077;-63
2023/02/24 09:04:07;;;;;;;22.60;4.68;;;4.20;99.90;;;;;;5089920;28;20035;-63
2023/02/24 09:06:56;;;;;;;19.50;4.40;;;4.30;99.90;;;;;;5087875;28;20040;-63
2023/02/24 09:09:23;;;;;;;24.27;5.00;;;4.30;99.90;;;;;;5088848;28;20027;-64
2023/02/24 09:11:58;;;;;;;14.90;4.38;;;4.40;99.90;;;;;;5088985;28;20063;-63
2023/02/24 09:14:27;;;;;;;21.10;4.88;;;4.40;99.90;;;;;;5089760;28;20024;-64
2023/02/24 09:17:09;;;;;;;22.48;5.53;;;4.40;99.90;;;;;;5087525;28;20517;-64
2023/02/24 09:22:30;;;;;;;20.00;4.97;;;4.50;99.90;;;;;;5090680;28;20435;-63
2023/02/24 09:25:22;;;;;;;21.08;4.75;;;4.40;99.90;;;;;;5080868;28;20078;-63
2023/02/24 09:27:54;;;;;;;24.65;5.25;;;4.40;99.90;;;;;;5070395;28;20422;-63
2023/02/24 09:30:49;;;;;;;23.38;5.90;;;4.40;99.90;;;;;;5083751;28;20028;-63
2023/02/24 09:33:21;;;;;;;18.65;5.30;;;4.40;99.90;;;;;;5090194;28;20490;-63
2023/02/24 09:35:52;;;;;;;20.33;6.78;;;4.40;99.90;;;;;;5083506;28;20033;-63
2023/02/24 09:38:23;;;;;;;25.48;6.97;;;4.40;99.90;;;;;;5088994;28;20024;-64
2023/02/24 09:40:49;;;;;;;31.08;7.10;;;4.40;99.90;;;;;;5070510;28;20033;-63
2023/02/24 09:43:19;;;;;;;20.90;6.35;;;4.40;99.90;;;;;;5070007;28;20027;-63
2023/02/24 09:45:57;;;;;;;23.25;6.45;;;4.40;99.90;;;;;;5085564;28;20432;-63
2023/02/24 09:48:30;;;;;;;19.35;6.10;;;4.40;99.90;;;;;;5081594;28;20043;-63
2023/02/24 09:51:04;;;;;;;19.25;6.25;;;4.30;99.90;;;;;;5071739;28;20115;-63
2023/02/24 09:53:51;;;;;;;16.85;5.70;;;4.40;99.90;;;;;;5086409;28;20031;-63
2023/02/24 09:56:26;;;;;;;15.95;6.60;;;4.30;99.90;;;;;;5088740;28;20032;-63
2023/02/24 09:59:09;;;;;;;23.02;6.28;;;4.20;99.90;;;;;;5090180;28;20508;-64
2023/02/24 10:01:44;;;;;;;23.27;5.90;;;4.30;99.90;;;;;;5084124;28;20017;-63
2023/02/24 10:06:57;;;;;;;22.20;5.90;;;4.00;99.90;;;;;;5107628;27;20427;-63
2023/02/24 10:09:33;;;;;;;21.92;5.43;;;3.90;99.90;;;;;;5090678;28;20149;-63
2023/02/24 10:17:54;;;;;;;20.08;5.68;;;3.60;99.90;;;;;;5089397;28;20469;-63
2023/02/24 10:20:38;;;;;;;25.57;6.90;;;3.50;99.90;;;;;;5066425;28;20107;-63
2023/02/24 10:23:31;;;;;;;25.60;6.22;;;3.40;99.90;;;;;;5070554;28;20263;-63
2023/02/24 10:26:02;;;;;;;;;;;3.40;99.90;;;;;;5066056;28;20029;-63
2023/02/24 10:28:44;;;;;;;27.83;6.20;;;3.50;99.90;;;;;;5060911;28;20381;-63
2023/02/24 10:31:29;;;;;;;20.67;6.25;;;3.50;99.90;;;;;;5066520;28;20033;-63
2023/02/24 10:34:07;;;;;;;18.38;5.82;;;3.50;99.90;;;;;;5068856;28;20029;-63
2023/02/24 10:36:34;;;;;;;19.38;5.07;;;3.50;99.90;;;;;;5066011;28;20107;-63
2023/02/24 10:39:25;;;;;;;24.15;6.25;;;3.60;99.90;;;;;;5069992;28;20021;-63
2023/02/24 10:41:56;;;;;;;18.63;6.95;;;3.60;99.90;;;;;;5068170;28;20079;-63
2023/02/24 10:44:25;;;;;;;25.23;6.75;;;3.60;99.90;;;;;;5070123;28;20032;-63
2023/02/24 10:47:10;;;;;;;28.42;7.70;;;3.60;99.90;;;;;;5064894;28;20475;-63
2023/02/24 10:49:41;;;;;;;17.38;8.30;;;3.60;99.90;;;;;;5029278;28;20029;-63
2023/02/24 10:52:32;;;;;;;32.00;9.70;;;3.60;99.90;;;;;;5054153;28;20128;-63
2023/02/24 10:55:07;;;;;;;23.92;8.55;;;3.70;99.90;;;;;;5047884;28;20037;-63
2023/02/24 10:57:46;;;;;;;28.08;8.20;;;3.70;99.90;;;;;;5048213;28;20041;-63
2023/02/24 11:00:31;;;;;;;19.02;8.02;;;3.80;99.90;;;;;;5047822;28;20029;-64
2023/02/24 11:03:24;;;;;;;20.55;7.78;;;3.80;99.90;;;;;;5049551;28;20055;-63
2023/02/24 11:06:29;;;;;;;20.20;7.28;;;3.80;99.90;;;;;;5049176;28;20037;-63
2023/02/24 11:11:28;;;;;;;23.95;9.20;;;4.00;99.90;;;;;;5055519;28;20029;-63
2023/02/24 11:17:18;;;;;;;27.67;10.55;;;4.00;99.90;;;;;;5065015;28;20158;-63
2023/02/24 11:19:44;;;;;;;25.10;9.85;;;3.90;99.90;;;;;;5068994;28;20367;-64
2023/02/24 11:22:14;;;;;;;31.48;10.60;;;3.90;99.90;;;;;;5067449;28;20079;-63
2023/02/24 11:24:42;;;;;;;34.60;9.65;;;3.90;99.90;;;;;;5055311;28;20029;-63
2023/02/24 11:27:10;;;;;;;28.90;9.70;;;3.90;99.90;;;;;;5055771;28;20021;-63
2023/02/24 11:32:44;;;;;;;27.52;8.38;;;3.90;99.90;;;;;;5070487;28;20410;-63
2023/02/24 11:35:16;;;;;;;;;;;4.00;99.90;;;;;;5069668;28;20375;-64
2023/02/24 11:37:52;;;;;;;24.27;8.85;;;4.10;99.90;;;;;;5069411;28;19913;-63
2023/02/24 11:40:22;;;;;;;31.02;10.68;;;4.00;99.90;;;;;;5070265;28;20120;-63
2023/02/24 11:42:55;;;;;;;30.63;10.15;;;4.00;99.90;;;;;;5069341;28;20045;-63
2023/02/24 11:45:50;;;;;;;25.48;10.38;;;4.10;99.90;;;;;;5067653;28;20060;-64
2023/02/24 11:48:23;;;;;;;24.83;10.10;;;4.10;99.90;;;;;;5048636;28;20059;-63
2023/02/24 11:51:12;;;;;;;22.38;9.40;;;4.00;99.90;;;;;;5058430;28;20032;-63
2023/02/24 11:53:58;;;;;;;34.42;11.50;;;4.00;99.90;;;;;;5069950;28;20043;-63
2023/02/24 11:56:29;;;;;;;20.42;9.88;;;3.90;99.90;;;;;;5055040;28;20515;-63
2023/02/24 11:59:04;;;;;;;29.02;9.57;;;3.90;99.90;;;;;;5065583;28;20025;-63
2023/02/24 12:01:36;;;;;;;30.55;10.60;;;3.90;99.90;;;;;;5063038;28;20032;-63
2023/02/24 12:04:27;;;;;;;25.60;10.40;;;3.90;99.90;;;;;;5068943;28;20492;-64
2023/02/24 12:07:23;;;;;;;22.00;10.25;;;3.80;99.90;;;;;;5049872;28;20027;-63
2023/02/24 12:09:55;;;;;;;27.48;11.02;;;3.80;99.90;;;;;;5055737;28;20109;-63
2023/02/24 12:12:27;;;;;;;27.98;11.52;;;3.80;99.90;;;;;;5068494;28;20025;-63
2023/02/24 12:14:57;;;;;;;31.13;13.35;;;3.80;99.90;;;;;;5068868;28;20032;-62
2023/02/24 12:17:36;;;;;;;31.55;13.55;;;3.80;99.90;;;;;;5068275;28;20235;-63
2023/02/24 12:20:20;;;;;;;24.60;13.60;;;3.70;99.90;;;;;;5052999;28;20041;-63
2023/02/24 12:22:53;;;;;;;26.92;14.55;;;3.70;99.90;;;;;;5063602;28;20075;-63
2023/02/24 12:25:25;;;;;;;33.17;15.13;;;3.70;99.90;;;;;;5068463;28;20056;-63
2023/02/24 12:28:11;;;;;;;37.47;14.98;;;3.80;99.90;;;;;;5069210;28;20060;-63
2023/02/24 12:33:49;;;;;;;34.80;15.90;;;3.70;99.90;;;;;;5070470;28;20436;-63
2023/02/24 12:36:43;;;;;;;34.53;17.10;;;3.70;99.90;;;;;;5068133;28;20060;-63
2023/02/24 12:39:14;;;;;;;;;;;3.70;99.90;;;;;;5070386;28;20056;-63
2023/02/24 12:41:56;;;;;;;30.88;17.00;;;3.70;99.90;;;;;;5070367;28;19904;-64
2023/02/24 12:45:01;;;;;;;39.20;18.85;;;3.70;99.90;;;;;;5069358;28;20063;-63
2023/02/24 12:47:44;;;;;;;35.08;18.30;;;3.70;99.90;;;;;;5070183;28;20036;-63
2023/02/24 12:50:33;;;;;;;42.25;20.65;;;3.70;99.90;;;;;;5069150;28;20031;-65
2023/02/24 12:53:25;;;;;;;41.83;21.38;;;3.70;99.90;;;;;;5050048;28;20067;-63
2023/02/24 12:56:06;;;;;;;44.83;22.58;;;3.60;99.90;;;;;;5054763;28;20490;-63
2023/02/24 12:58:36;;;;;;;39.78;22.63;;;3.70;99.90;;;;;;5068591;28;20436;-64
2023/02/24 13:01:26;;;;;;;41.97;22.25;;;3.60;99.90;;;;;;5065795;28;20180;-63
2023/02/24 13:04:10;;;;;;;45.00;23.05;;;3.70;99.90;;;;;;5067922;28;20123;-63
2023/02/24 13:06:50;;;;;;;37.55;24.27;;;3.70;99.90;;;;;;5055555;28;20392;-63
2023/02/24 13:09:43;;;;;;;50.05;26.83;;;3.60;99.90;;;;;;5056887;28;20039;-63
2023/02/24 13:12:35;;;;;;;51.23;26.27;;;3.70;99.90;;;;;;5069550;28;20487;-63
2023/02/24 13:15:03;;;;;;;58.50;29.35;;;3.70;99.90;;;;;;5055432;28;20071;-63
2023/02/24 13:17:29;;;;;;;54.30;28.75;;;3.70;99.90;;;;;;5069430;28;20032;-63
2023/02/24 13:19:55;;;;;;;50.78;29.25;;;3.70;99.90;;;;;;5069535;28;20021;-63
2023/02/24 13:22:40;;;;;;;56.83;29.48;;;3.70;99.90;;;;;;5081781;28;20493;-63
2023/02/24 13:25:20;;;;;;;57.35;30.55;;;3.70;99.90;;;;;;5088248;28;20398;-63
2023/02/24 13:27:58;;;;;;;51.30;30.48;;;3.70;99.90;;;;;;5077380;28;20116;-63
2023/02/24 13:30:35;;;;;;;51.60;31.60;;;3.60;99.90;;;;;;5068193;28;20029;-63
2023/02/24 13:33:22;;;;;;;56.75;31.23;;;3.70;99.90;;;;;;5067833;28;20052;-63
2023/02/24 13:35:52;;;;;;;59.22;30.58;;;3.70;99.90;;;;;;5068141;28;20120;-64
2023/02/24 13:38:35;;;;;;;56.13;30.95;;;3.60;99.90;;;;;;5069643;28;20024;-63
2023/02/24 13:41:23;;;;;;;57.38;31.92;;;3.50;99.90;;;;;;5067855;28;20028;-63
2023/02/24 13:44:25;;;;;;;55.63;31.83;;;3.50;99.90;;;;;;5062215;28;20032;-63
2023/02/24 13:47:31;;;;;;;64.43;32.25;;;3.50;99.90;;;;;;5055631;28;20478;-63
2023/02/24 13:50:13;;;;;;;57.08;32.20;;;3.50;99.90;;;;;;5054547;28;20036;-63
2023/02/24 13:53:22;;;;;;;65.22;35.00;;;3.50;99.90;;;;;;5055609;28;20029;-63
2023/02/24 13:56:27;;;;;;;67.97;36.35;;;3.50;99.90;;;;;;5055841;28;20034;-63
2023/02/24 14:01:48;;;;;;;73.88;39.08;;;3.50;99.90;;;;;;5110232;27;20441;-63